Terminal Aerodrome Forecast
Issued by NWS

Home | Current Version | Previous Version | Text Only | Print | Product List | Glossary On
Versions: 1 2 3 4 5 6 7 8 9 10 11 12
000
FTAK31 PAJN 041723
TAFAPG
TAF
PAPG 041723Z 0418/0518 06005KT P6SM SCT100
     FM042200 07004KT P6SM OVC090
     FM050400 09006KT P6SM VCSH OVC050
     FM050800 10005KT 6SM -RA BR BKN025 OVC040
     FM051200 12008KT 6SM -RA BR BKN025 OVC040 WS020/13025KT
     FM051700 11005KT 6SM -RA BR BKN025 OVC040 WS020/13025KT
      AMD LTD TO CLD VIS AND WIND 0506/0515=

USA.gov is the U.S. government's official web portal to all federal, state and local government web resources and services.